createdAt,value
2019-05-21T00:01:56.623Z,14.97
2019-05-21T00:04:28.144Z,15.50
2019-05-21T00:06:51.115Z,13.93
2019-05-21T00:09:17.479Z,15.57
2019-05-21T00:11:43.746Z,14.47
2019-05-21T00:14:11.403Z,15.33
2019-05-21T00:16:37.848Z,16.53
2019-05-21T00:19:04.363Z,15.80
2019-05-21T00:21:30.959Z,18.90
2019-05-21T00:23:57.225Z,15.67
2019-05-21T00:26:23.959Z,17.67
2019-05-21T00:29:28.155Z,18.80
2019-05-21T00:32:32.475Z,22.23
2019-05-21T00:35:44.737Z,19.37
2019-05-21T00:38:51.805Z,21.03
2019-05-21T00:41:54.721Z,22.33
2019-05-21T00:44:21.503Z,21.17
2019-05-21T00:46:48.135Z,23.17
2019-05-21T00:49:14.531Z,23.43
2019-05-21T00:51:40.927Z,24.00
2019-05-21T00:54:07.210Z,26.07
2019-05-21T00:56:36.552Z,27.50
2019-05-21T00:59:02.942Z,25.10
2019-05-21T01:01:29.716Z,24.13
2019-05-21T01:03:56.351Z,26.47
2019-05-21T01:06:22.752Z,26.03
2019-05-21T01:08:49.116Z,24.33
2019-05-21T01:11:15.398Z,26.17
2019-05-21T01:13:42.933Z,23.10
2019-05-21T01:16:09.322Z,25.20
2019-05-21T01:18:35.982Z,24.10
2019-05-21T01:21:03.792Z,22.40
2019-05-21T01:23:30.083Z,21.60
2019-05-21T01:25:56.375Z,21.80
2019-05-21T01:28:22.848Z,21.43
2019-05-21T01:30:49.138Z,19.23
2019-05-21T01:33:15.528Z,19.30
2019-05-21T01:35:41.909Z,19.37
2019-05-21T01:38:08.471Z,17.50
2019-05-21T01:40:34.756Z,16.40
2019-05-21T01:43:03.287Z,14.63
2019-05-21T01:45:29.305Z,17.53
2019-05-21T01:47:55.580Z,14.03
2019-05-21T01:50:21.967Z,11.97
2019-05-21T01:52:48.280Z,12.00
2019-05-21T01:55:14.547Z,12.07
2019-05-21T01:57:40.825Z,9.70
2019-05-21T02:00:07.630Z,9.03
2019-05-21T02:02:34.750Z,8.77
2019-05-21T02:05:01.241Z,8.80
2019-05-21T02:07:27.787Z,7.80
2019-05-21T02:09:57.122Z,8.10
2019-05-21T02:12:23.867Z,8.03
2019-05-21T02:14:50.535Z,6.93
2019-05-21T02:17:17.142Z,7.37
2019-05-21T02:19:43.527Z,6.37
2019-05-21T02:22:09.915Z,5.57
2019-05-21T02:24:36.228Z,6.33
2019-05-21T02:27:02.808Z,6.17
2019-05-21T02:29:29.199Z,5.23
2019-05-21T02:31:55.465Z,4.93
2019-05-21T02:34:21.747Z,5.30
2019-05-21T02:36:48.020Z,5.13
2019-05-21T02:39:14.316Z,5.30
2019-05-21T02:41:40.964Z,5.93
2019-05-21T02:44:07.456Z,6.10
2019-05-21T02:46:34.253Z,5.03
2019-05-21T02:49:00.979Z,5.10
2019-05-21T02:51:27.292Z,4.77
2019-05-21T02:53:53.683Z,5.27
2019-05-21T02:56:20.072Z,5.37
2019-05-21T02:58:46.820Z,6.43
2019-05-21T03:01:23.898Z,4.57
2019-05-21T03:03:50.174Z,4.47
2019-05-21T03:06:16.467Z,4.40
2019-05-21T03:08:42.938Z,4.97
2019-05-21T03:11:10.349Z,4.27
2019-05-21T03:13:36.901Z,5.57
2019-05-21T03:16:03.299Z,5.43
2019-05-21T03:18:29.579Z,4.87
2019-05-21T03:20:55.872Z,4.50
2019-05-21T03:23:22.262Z,4.80
2019-05-21T03:25:48.671Z,4.90
2019-05-21T03:28:15.023Z,4.00
2019-05-21T03:30:41.617Z,4.47
2019-05-21T03:33:08.468Z,5.13
2019-05-21T03:35:34.846Z,5.37
2019-05-21T03:38:01.349Z,3.93
2019-05-21T03:40:27.920Z,4.60
2019-05-21T03:42:54.318Z,3.90
2019-05-21T03:45:20.899Z,4.17
2019-05-21T03:47:47.290Z,5.03
2019-05-21T03:50:13.672Z,4.30
2019-05-21T03:52:40.336Z,4.17
2019-05-21T03:55:07.551Z,4.23
2019-05-21T03:57:33.966Z,3.53
2019-05-21T04:00:00.332Z,3.87
2019-05-21T04:02:27.090Z,4.60
2019-05-21T04:04:53.631Z,3.73
2019-05-21T04:07:19.995Z,3.73
2019-05-21T04:09:46.301Z,3.30
2019-05-21T04:12:12.655Z,4.00
2019-05-21T04:14:40.863Z,2.60
2019-05-21T04:17:11.955Z,3.63
2019-05-21T04:19:40.256Z,3.40
2019-05-21T04:22:13.046Z,2.87
2019-05-21T04:24:39.344Z,2.77
2019-05-21T04:27:05.760Z,3.20
2019-05-21T04:29:33.413Z,2.90
2019-05-21T04:31:59.719Z,3.20
2019-05-21T04:34:26.301Z,3.77
2019-05-21T04:37:09.343Z,3.43
2019-05-21T04:39:20.894Z,3.03
2019-05-21T04:41:47.241Z,3.10
2019-05-21T04:44:13.624Z,2.67
2019-05-21T04:46:40.310Z,2.43
2019-05-21T04:49:06.861Z,3.07
2019-05-21T04:51:33.204Z,3.20
2019-05-21T04:53:59.587Z,3.67
2019-05-21T04:56:25.947Z,2.60
2019-05-21T04:58:52.581Z,3.03
2019-05-21T05:01:19.045Z,2.93
2019-05-21T05:03:45.441Z,3.50
2019-05-21T05:06:11.807Z,3.27
2019-05-21T05:08:39.643Z,4.57
2019-05-21T05:11:05.923Z,3.77
2019-05-21T05:13:32.199Z,3.30
2019-05-21T05:15:58.975Z,5.00
2019-05-21T05:18:26.118Z,3.67
2019-05-21T05:20:52.406Z,4.10
2019-05-21T05:23:18.764Z,4.87
2019-05-21T05:25:45.088Z,3.60
2019-05-21T05:28:11.460Z,3.70
2019-05-21T05:30:37.775Z,3.97
2019-05-21T05:33:04.152Z,4.53
2019-05-21T05:35:30.647Z,3.90
2019-05-21T05:37:56.910Z,4.43
2019-05-21T05:40:23.686Z,5.17
2019-05-21T05:42:50.075Z,3.33
2019-05-21T05:45:16.969Z,4.13
2019-05-21T05:47:43.430Z,4.00
2019-05-21T05:50:12.283Z,3.97
2019-05-21T05:52:38.544Z,4.30
2019-05-21T05:55:07.052Z,4.03
2019-05-21T05:57:33.435Z,5.10
2019-05-21T06:00:00.867Z,5.40
2019-05-21T06:02:27.391Z,6.50
2019-05-21T06:04:53.655Z,4.30
2019-05-21T06:07:20.047Z,3.13
2019-05-21T06:09:46.418Z,3.63
2019-05-21T06:12:12.720Z,4.43
2019-05-21T06:14:39.085Z,4.10
2019-05-21T06:17:05.632Z,4.07
2019-05-21T06:19:32.081Z,3.67
2019-05-21T06:21:58.381Z,4.07
2019-05-21T06:24:24.657Z,3.60
2019-05-21T06:26:51.247Z,3.23
2019-05-21T06:29:17.726Z,3.53
2019-05-21T06:31:44.143Z,3.97
2019-05-21T06:34:10.615Z,4.40
2019-05-21T06:36:37.386Z,3.07
2019-05-21T06:39:05.954Z,3.10
2019-05-21T06:41:32.716Z,3.10
2019-05-21T06:43:59.074Z,3.07
2019-05-21T06:46:25.342Z,2.60
2019-05-21T06:48:51.747Z,4.40
2019-05-21T06:51:18.382Z,3.37
2019-05-21T06:53:44.750Z,3.40
2019-05-21T06:56:11.325Z,3.60
2019-05-21T06:58:37.732Z,3.10
2019-05-21T07:01:04.549Z,3.60
2019-05-21T07:03:31.028Z,3.40
2019-05-21T07:05:59.282Z,3.87
2019-05-21T07:08:34.266Z,3.10
2019-05-21T07:10:54.377Z,4.23
2019-05-21T07:13:20.918Z,4.87
2019-05-21T07:15:47.308Z,4.50
2019-05-21T07:18:13.600Z,3.10
2019-05-21T07:20:39.996Z,4.03
2019-05-21T07:23:06.543Z,5.23
2019-05-21T07:25:33.339Z,4.77
2019-05-21T07:27:59.821Z,4.20
2019-05-21T07:30:26.610Z,5.13
2019-05-21T07:32:53.101Z,5.20
2019-05-21T07:35:19.614Z,5.23
2019-05-21T07:37:46.533Z,6.13
2019-05-21T07:40:13.726Z,6.23
2019-05-21T07:42:40.521Z,5.67
2019-05-21T07:45:07.426Z,5.20
2019-05-21T07:47:34.877Z,5.20
2019-05-21T07:50:01.308Z,5.77
2019-05-21T07:52:28.483Z,5.30
2019-05-21T07:54:54.873Z,6.10
2019-05-21T07:57:21.259Z,6.50
2019-05-21T07:59:47.643Z,5.07
2019-05-21T08:02:13.951Z,6.10
2019-05-21T08:04:40.308Z,5.57
2019-05-21T08:07:07.395Z,5.40
2019-05-21T08:09:33.970Z,6.27
2019-05-21T08:12:00.269Z,5.27
2019-05-21T08:14:26.925Z,5.77
2019-05-21T08:16:53.454Z,6.10
2019-05-21T08:19:19.819Z,7.23
2019-05-21T08:21:46.432Z,5.87
2019-05-21T08:24:13.162Z,6.00
2019-05-21T08:26:39.489Z,5.83
2019-05-21T08:29:05.852Z,7.80
2019-05-21T08:31:32.340Z,5.87
2019-05-21T08:33:58.731Z,6.47
2019-05-21T08:36:25.198Z,7.37
2019-05-21T08:38:51.524Z,6.83
2019-05-21T08:41:18.354Z,7.63
2019-05-21T08:43:45.947Z,7.70
2019-05-21T08:46:12.310Z,7.77
2019-05-21T08:48:38.592Z,6.60
2019-05-21T08:51:05.679Z,7.20
2019-05-21T08:53:31.967Z,8.23
2019-05-21T08:55:58.652Z,8.33
2019-05-21T08:58:25.043Z,8.13
2019-05-21T09:00:51.422Z,6.80
2019-05-21T09:03:17.726Z,7.43
2019-05-21T09:05:44.092Z,9.40
2019-05-21T09:08:10.814Z,9.30
2019-05-21T09:10:39.931Z,8.97
2019-05-21T09:13:06.308Z,7.57
2019-05-21T09:15:32.722Z,7.77
2019-05-21T09:17:59.322Z,8.70
2019-05-21T09:20:26.818Z,6.87
2019-05-21T09:22:53.377Z,8.07
2019-05-21T09:25:19.679Z,9.73
2019-05-21T09:27:46.046Z,7.93
2019-05-21T09:30:12.843Z,8.50
2019-05-21T09:32:39.119Z,7.63
2019-05-21T09:35:06.918Z,8.37
2019-05-21T09:37:33.185Z,9.67
2019-05-21T09:40:00.807Z,9.20
2019-05-21T09:42:27.244Z,9.93
2019-05-21T09:44:53.659Z,9.57
2019-05-21T09:47:20.315Z,9.33
2019-05-21T09:49:46.696Z,9.73
2019-05-21T09:52:12.983Z,9.77
2019-05-21T09:54:39.280Z,10.30
2019-05-21T09:57:07.663Z,8.60
2019-05-21T09:59:38.920Z,10.43
2019-05-21T10:02:19.235Z,10.10
2019-05-21T10:04:46.494Z,9.27
2019-05-21T10:07:12.990Z,9.93
2019-05-21T10:09:39.370Z,10.63
2019-05-21T10:12:06.913Z,11.10
2019-05-21T10:14:34.267Z,9.90
2019-05-21T10:17:01.374Z,9.93
2019-05-21T10:19:27.664Z,10.57
2019-05-21T10:21:56.918Z,9.33
2019-05-21T10:24:22.454Z,9.57
2019-05-21T10:26:48.829Z,8.53
2019-05-21T10:29:15.122Z,10.13
2019-05-21T10:31:41.919Z,9.23
2019-05-21T10:34:08.561Z,8.43
2019-05-21T10:36:35.159Z,9.07
2019-05-21T10:39:02.356Z,7.67
2019-05-21T10:41:30.530Z,7.50
2019-05-21T10:43:57.043Z,8.73
2019-05-21T10:46:23.649Z,9.17
2019-05-21T10:48:50.339Z,8.77
2019-05-21T10:51:17.175Z,8.97
2019-05-21T10:53:43.553Z,8.07
2019-05-21T10:56:10.042Z,10.30
2019-05-21T10:58:36.688Z,8.13
2019-05-21T11:01:07.908Z,8.40
2019-05-21T11:03:45.635Z,8.63
2019-05-21T11:06:13.129Z,10.93
2019-05-21T11:08:40.274Z,9.30
2019-05-21T11:11:07.087Z,9.03
2019-05-21T11:13:33.807Z,7.87
2019-05-21T11:16:00.325Z,9.30
2019-05-21T11:18:26.715Z,8.37
2019-05-21T11:20:53.182Z,9.20
2019-05-21T11:23:19.477Z,7.77
2019-05-21T11:25:45.869Z,9.00
2019-05-21T11:28:12.263Z,9.03
2019-05-21T11:30:38.633Z,9.47
2019-05-21T11:33:05.491Z,9.60
2019-05-21T11:35:31.778Z,8.53
2019-05-21T11:37:58.066Z,9.63
2019-05-21T11:40:25.240Z,8.67
2019-05-21T11:42:53.184Z,8.30
2019-05-21T11:45:31.540Z,9.87
2019-05-21T11:47:48.408Z,9.63
2019-05-21T11:50:16.692Z,9.43
2019-05-21T11:52:43.823Z,8.80
2019-05-21T11:55:10.680Z,8.17
2019-05-21T11:57:37.164Z,7.37
2019-05-21T12:00:05.580Z,8.07
2019-05-21T12:02:32.117Z,8.87
2019-05-21T12:04:58.476Z,9.13
2019-05-21T12:07:24.880Z,10.60
2019-05-21T12:09:51.256Z,9.20
2019-05-21T12:12:17.558Z,8.97
2019-05-21T12:14:43.842Z,9.60
2019-05-21T12:17:10.825Z,9.37
2019-05-21T12:19:37.186Z,7.37
2019-05-21T12:22:03.579Z,7.33
2019-05-21T12:24:30.237Z,8.70
2019-05-21T12:26:56.547Z,6.77
2019-05-21T12:29:22.831Z,8.37
2019-05-21T12:31:49.202Z,8.47
2019-05-21T12:34:15.588Z,8.03
2019-05-21T12:36:41.995Z,9.03
2019-05-21T12:39:14.109Z,8.03
2019-05-21T12:41:36.795Z,7.50
2019-05-21T12:44:03.648Z,8.10
2019-05-21T12:46:30.059Z,8.80
2019-05-21T12:48:56.715Z,8.10
2019-05-21T12:51:23.556Z,8.27
2019-05-21T12:53:49.951Z,8.33
2019-05-21T12:56:16.215Z,7.30
2019-05-21T12:58:42.507Z,8.30
2019-05-21T13:01:08.975Z,8.33
2019-05-21T13:03:35.346Z,8.13
2019-05-21T13:06:01.832Z,8.33
2019-05-21T13:08:28.224Z,8.30
2019-05-21T13:10:54.619Z,9.10
2019-05-21T13:13:20.978Z,6.87
2019-05-21T13:15:47.300Z,8.90
2019-05-21T13:18:13.700Z,8.03
2019-05-21T13:20:40.023Z,7.47
2019-05-21T13:23:06.568Z,7.20
2019-05-21T13:25:34.567Z,6.40
2019-05-21T13:28:01.039Z,6.93
2019-05-21T13:30:27.516Z,8.30
2019-05-21T13:32:53.916Z,7.20
2019-05-21T13:35:20.511Z,8.03
2019-05-21T13:37:47.103Z,6.57
2019-05-21T13:40:16.152Z,8.20
2019-05-21T13:42:42.819Z,8.33
2019-05-21T13:45:09.749Z,8.43
2019-05-21T13:47:36.279Z,7.33
2019-05-21T13:50:07.742Z,9.17
2019-05-21T13:52:34.223Z,9.37
2019-05-21T13:55:00.488Z,8.23
2019-05-21T13:57:26.776Z,9.43
2019-05-21T13:59:53.555Z,9.53
2019-05-21T14:02:20.059Z,9.33
2019-05-21T14:04:46.898Z,10.07
2019-05-21T14:07:13.743Z,10.17
2019-05-21T14:09:40.220Z,9.10
2019-05-21T14:12:07.109Z,10.10
2019-05-21T14:14:33.503Z,10.10
2019-05-21T14:16:59.834Z,8.43
2019-05-21T14:19:26.243Z,8.47
2019-05-21T14:21:52.616Z,7.80
2019-05-21T14:24:19.116Z,8.03
2019-05-21T14:26:45.586Z,8.93
2019-05-21T14:29:12.264Z,8.17
2019-05-21T14:31:38.562Z,7.43
2019-05-21T14:34:05.211Z,8.83
2019-05-21T14:36:31.874Z,8.30
2019-05-21T14:38:58.611Z,8.07
2019-05-21T14:41:24.911Z,8.43
2019-05-21T14:43:51.387Z,6.53
2019-05-21T14:46:17.766Z,8.07
2019-05-21T14:48:44.652Z,6.93
2019-05-21T14:51:13.441Z,8.17
2019-05-21T14:53:39.319Z,6.70
2019-05-21T14:56:05.718Z,6.87
2019-05-21T14:58:32.426Z,7.03
2019-05-21T15:00:59.072Z,6.97
2019-05-21T15:03:25.799Z,8.03
2019-05-21T15:05:52.254Z,7.27
2019-05-21T15:08:18.526Z,6.20
2019-05-21T15:10:48.875Z,7.23
2019-05-21T15:13:14.152Z,6.90
2019-05-21T15:15:40.777Z,6.77
2019-05-21T15:18:07.369Z,6.77
2019-05-21T15:20:38.726Z,7.07
2019-05-21T15:23:06.215Z,6.47
2019-05-21T15:25:32.583Z,6.47
2019-05-21T15:27:59.091Z,6.20
2019-05-21T15:30:25.468Z,5.60
2019-05-21T15:32:51.854Z,4.70
2019-05-21T15:35:18.128Z,5.40
2019-05-21T15:37:45.238Z,5.23
2019-05-21T15:40:12.407Z,5.53
2019-05-21T15:42:39.011Z,3.83
2019-05-21T15:45:06.365Z,5.13
2019-05-21T15:47:32.867Z,4.77
2019-05-21T15:49:59.164Z,5.27
2019-05-21T15:52:25.744Z,5.10
2019-05-21T15:54:52.121Z,5.63
2019-05-21T15:57:18.515Z,5.53
2019-05-21T15:59:45.355Z,5.27
2019-05-21T16:02:11.623Z,5.70
2019-05-21T16:04:37.915Z,6.03
2019-05-21T16:07:04.394Z,5.93
2019-05-21T16:09:30.803Z,6.20
2019-05-21T16:11:57.292Z,7.13
2019-05-21T16:14:24.981Z,6.67
2019-05-21T16:16:51.814Z,7.30
2019-05-21T16:19:18.221Z,7.13
2019-05-21T16:21:44.606Z,7.87
2019-05-21T16:24:11.022Z,9.03
2019-05-21T16:26:38.077Z,10.03
2019-05-21T16:29:04.512Z,7.23
2019-05-21T16:31:31.135Z,8.07
2019-05-21T16:33:57.570Z,8.33
2019-05-21T16:36:24.096Z,8.57
2019-05-21T16:38:50.492Z,9.23
2019-05-21T16:41:17.088Z,9.47
2019-05-21T16:43:43.447Z,8.87
2019-05-21T16:46:10.488Z,8.70
2019-05-21T16:48:36.809Z,8.33
2019-05-21T16:51:03.753Z,9.53
2019-05-21T16:53:30.215Z,11.13
2019-05-21T16:55:57.115Z,9.87
2019-05-21T16:58:23.488Z,9.00
2019-05-21T17:00:49.788Z,8.90
2019-05-21T17:03:16.152Z,10.37
2019-05-21T17:05:42.548Z,9.83
2019-05-21T17:08:09.187Z,9.00
2019-05-21T17:10:35.483Z,10.30
2019-05-21T17:13:01.756Z,11.43
2019-05-21T17:15:28.682Z,16.13
2019-05-21T17:17:55.043Z,12.10
2019-05-21T17:20:21.339Z,11.93
2019-05-21T17:22:47.714Z,9.23
2019-05-21T17:25:14.306Z,9.23
2019-05-21T17:27:40.774Z,10.80
2019-05-21T17:30:08.055Z,11.83
2019-05-21T17:32:34.849Z,9.80
2019-05-21T17:35:01.523Z,10.27
2019-05-21T17:37:28.018Z,10.10
2019-05-21T17:39:54.393Z,8.90
2019-05-21T17:42:21.095Z,9.90
2019-05-21T17:44:47.459Z,12.70
2019-05-21T17:47:13.911Z,10.83
2019-05-21T17:49:40.551Z,12.77
2019-05-21T17:52:06.970Z,13.37
2019-05-21T17:54:33.903Z,12.63
2019-05-21T17:57:00.401Z,11.63
2019-05-21T17:59:26.999Z,11.33
2019-05-21T18:01:53.422Z,12.30
2019-05-21T18:04:19.998Z,12.43
2019-05-21T18:06:46.575Z,11.60
2019-05-21T18:09:17.149Z,11.00
2019-05-21T18:11:44.566Z,11.03
2019-05-21T18:14:10.966Z,12.63
2019-05-21T18:16:37.355Z,12.37
2019-05-21T18:19:08.287Z,13.17
2019-05-21T18:21:33.650Z,12.87
2019-05-21T18:24:00.209Z,12.70
2019-05-21T18:26:27.762Z,11.60
2019-05-21T18:28:54.497Z,12.13
2019-05-21T18:31:21.046Z,11.33
2019-05-21T18:33:47.549Z,14.17
2019-05-21T18:36:14.117Z,14.60
2019-05-21T18:38:40.710Z,13.77
2019-05-21T18:41:07.483Z,12.77
2019-05-21T18:43:34.086Z,14.67
2019-05-21T18:46:00.563Z,13.73
2019-05-21T18:48:27.286Z,13.40
2019-05-21T18:50:54.242Z,14.37
2019-05-21T18:53:20.748Z,16.03
2019-05-21T18:55:47.519Z,15.17
2019-05-21T18:58:16.951Z,15.57
2019-05-21T19:00:42.300Z,15.17
2019-05-21T19:03:08.872Z,15.63
2019-05-21T19:05:35.710Z,16.23
2019-05-21T19:08:02.477Z,16.37
2019-05-21T19:10:28.743Z,18.37
2019-05-21T19:12:55.243Z,19.13
2019-05-21T19:15:21.649Z,18.90
2019-05-21T19:17:48.254Z,18.30
2019-05-21T19:20:16.718Z,15.67
2019-05-21T19:22:43.229Z,16.63
2019-05-21T19:25:10.227Z,17.47
2019-05-21T19:27:36.728Z,15.10
2019-05-21T19:30:05.899Z,16.57
2019-05-21T19:32:34.234Z,14.50
2019-05-21T19:35:01.111Z,14.97
2019-05-21T19:37:27.503Z,16.93
2019-05-21T19:39:53.871Z,17.23
2019-05-21T19:42:21.375Z,16.13
2019-05-21T19:44:47.663Z,18.40
2019-05-21T19:47:14.394Z,18.50
2019-05-21T19:49:41.178Z,21.30
2019-05-21T19:52:07.756Z,19.63
2019-05-21T19:54:34.348Z,17.30
2019-05-21T19:57:01.364Z,17.87
2019-05-21T19:59:28.403Z,16.57
2019-05-21T20:01:55.383Z,18.43
2019-05-21T20:04:22.785Z,14.53
2019-05-21T20:06:49.246Z,16.23
2019-05-21T20:09:16.905Z,17.47
2019-05-21T20:11:43.563Z,18.90
2019-05-21T20:14:10.039Z,19.83
2019-05-21T20:16:38.380Z,17.50
2019-05-21T20:19:05.579Z,16.53
2019-05-21T20:21:32.461Z,19.77
2019-05-21T20:23:59.910Z,22.60
2019-05-21T20:26:28.417Z,19.87
2019-05-21T20:28:55.091Z,18.20
2019-05-21T20:31:22.491Z,18.77
2019-05-21T20:33:49.699Z,18.83
2019-05-21T20:36:15.990Z,22.70
2019-05-21T20:38:42.363Z,19.20
2019-05-21T20:41:08.985Z,21.97
2019-05-21T20:43:35.632Z,21.80
2019-05-21T20:46:02.320Z,20.43
2019-05-21T20:48:31.420Z,18.37
2019-05-21T20:50:58.328Z,19.70
2019-05-21T20:53:24.820Z,16.07
2019-05-21T20:55:51.323Z,22.63
2019-05-21T20:58:18.020Z,19.23
2019-05-21T21:00:49.288Z,18.60
2019-05-21T21:03:16.791Z,17.20
2019-05-21T21:05:43.368Z,17.97
2019-05-21T21:08:11.963Z,19.40
2019-05-21T21:10:38.439Z,18.30
2019-05-21T21:13:06.086Z,18.10
2019-05-21T21:15:33.695Z,16.00
2019-05-21T21:18:00.071Z,16.23
2019-05-21T21:20:26.493Z,17.13
2019-05-21T21:22:52.955Z,15.20
2019-05-21T21:25:21.945Z,15.87
2019-05-21T21:27:49.039Z,17.30
2019-05-21T21:30:16.044Z,15.87
2019-05-21T21:32:42.738Z,15.10
2019-05-21T21:35:10.667Z,16.00
2019-05-21T21:37:37.386Z,16.83
2019-05-21T21:40:09.316Z,17.77
2019-05-21T21:42:36.190Z,17.33
2019-05-21T21:45:05.591Z,15.97
2019-05-21T21:47:32.158Z,19.07
2019-05-21T21:49:59.299Z,18.17
2019-05-21T21:52:25.971Z,19.43
2019-05-21T21:54:52.667Z,20.00
2019-05-21T21:57:19.502Z,19.03
2019-05-21T21:59:45.803Z,18.20
2019-05-21T22:02:28.191Z,18.57
2019-05-21T22:04:56.743Z,17.10
2019-05-21T22:07:24.219Z,18.23
2019-05-21T22:09:51.816Z,16.80
2019-05-21T22:12:19.608Z,17.63
2019-05-21T22:14:52.388Z,18.20
2019-05-21T22:17:19.139Z,17.30
2019-05-21T22:19:45.606Z,16.10
2019-05-21T22:22:12.816Z,15.33
2019-05-21T22:24:39.588Z,15.03
2019-05-21T22:27:06.302Z,16.13
2019-05-21T22:29:32.995Z,15.83
2019-05-21T22:31:59.478Z,15.90
2019-05-21T22:34:26.359Z,15.90
2019-05-21T22:36:52.933Z,16.23
2019-05-21T22:39:21.200Z,16.70
2019-05-21T22:41:47.484Z,19.17
2019-05-21T22:44:14.212Z,17.20
2019-05-21T22:46:41.139Z,18.03
2019-05-21T22:49:07.730Z,18.20
2019-05-21T22:51:34.012Z,19.87
2019-05-21T22:54:00.862Z,18.47
2019-05-21T22:56:27.132Z,18.50
2019-05-21T22:58:53.974Z,18.57
2019-05-21T23:01:22.269Z,19.17
2019-05-21T23:03:48.862Z,18.37
2019-05-21T23:06:15.400Z,18.00
2019-05-21T23:08:43.703Z,17.17
2019-05-21T23:11:10.407Z,16.53
2019-05-21T23:13:37.287Z,18.63
2019-05-21T23:16:05.698Z,15.50
2019-05-21T23:18:52.139Z,16.03
2019-05-21T23:21:37.715Z,16.10
2019-05-21T23:24:06.343Z,14.40
2019-05-21T23:26:33.750Z,12.43
2019-05-21T23:29:00.754Z,12.50
2019-05-21T23:31:28.342Z,10.93
2019-05-21T23:33:55.607Z,11.80
2019-05-21T23:36:22.000Z,10.07
2019-05-21T23:38:48.571Z,11.00
2019-05-21T23:41:17.869Z,11.30
2019-05-21T23:43:44.237Z,11.07
2019-05-21T23:46:10.622Z,10.77
2019-05-21T23:48:37.986Z,10.53
2019-05-21T23:51:04.526Z,9.37
2019-05-21T23:53:32.515Z,9.33
2019-05-21T23:55:59.271Z,10.70
2019-05-21T23:58:26.240Z,8.53
